createdAt,value
2023-08-15T00:01:33.357Z,101189.72
2023-08-15T00:06:55.277Z,101186.91
2023-08-15T00:12:17.155Z,101178.84
2023-08-15T00:17:39.086Z,101205.88
2023-08-15T00:23:01.409Z,101203.38
2023-08-15T00:28:23.541Z,101202.53
2023-08-15T00:33:45.627Z,101203.38
2023-08-15T00:39:07.525Z,101214.81
2023-08-15T00:44:29.367Z,101234.06
2023-08-15T00:49:52.801Z,101219.53
2023-08-15T00:55:14.811Z,101194.72
2023-08-15T01:00:36.882Z,101184.38
2023-08-15T01:05:58.812Z,101215.34
2023-08-15T01:11:20.686Z,101214.53
2023-08-15T01:16:46.693Z,101211.72
2023-08-15T01:22:22.550Z,101217.31
2023-08-15T01:27:44.392Z,101214.47
2023-08-15T01:33:31.860Z,101230.69
2023-08-15T01:38:59.340Z,101250.47
2023-08-15T01:44:22.480Z,101263.59
2023-08-15T01:49:44.360Z,101261.91
2023-08-15T01:55:06.720Z,101256.31
2023-08-15T02:00:28.766Z,101245.16
2023-08-15T02:05:50.631Z,101247.38
2023-08-15T02:11:13.136Z,101254.63
2023-08-15T02:16:35.177Z,101264.97
2023-08-15T02:21:57.785Z,101264.13
2023-08-15T02:27:19.935Z,101261.31
2023-08-15T02:32:41.973Z,101283.66
2023-08-15T02:38:04.186Z,101269.13
2023-08-15T02:43:26.044Z,101272.75
2023-08-15T02:48:47.938Z,101267.44
2023-08-15T02:54:09.868Z,101263.53
2023-08-15T02:59:31.798Z,101266.59
2023-08-15T03:04:53.717Z,101245.13
2023-08-15T03:10:15.902Z,101240.88
2023-08-15T03:15:38.630Z,101243.69
2023-08-15T03:21:03.273Z,101247.31
2023-08-15T03:26:27.346Z,101253.16
2023-08-15T03:31:49.487Z,101266.28
2023-08-15T03:37:11.514Z,101280.22
2023-08-15T03:42:33.391Z,101283.00
2023-08-15T03:47:55.282Z,101291.38
2023-08-15T03:53:17.178Z,101303.66
2023-08-15T03:58:39.034Z,101282.44
2023-08-15T04:04:01.147Z,101290.81
2023-08-15T04:09:23.245Z,101285.22
2023-08-15T04:14:45.267Z,101289.94
2023-08-15T04:20:08.761Z,101298.59
2023-08-15T04:25:31.961Z,101293.84
2023-08-15T04:30:53.976Z,101301.38
2023-08-15T04:36:15.945Z,101296.09
2023-08-15T04:41:37.799Z,101299.69
2023-08-15T04:46:59.616Z,101306.38
2023-08-15T04:52:21.460Z,101310.28
2023-08-15T04:57:43.317Z,101327.00
2023-08-15T05:03:05.498Z,101338.16
2023-08-15T05:08:27.496Z,101346.53
2023-08-15T05:13:49.353Z,101358.78
2023-08-15T05:19:11.320Z,101365.47
2023-08-15T05:24:33.472Z,101357.09
2023-08-15T05:29:55.513Z,101345.13
2023-08-15T05:35:17.550Z,101344.84
2023-08-15T05:40:40.695Z,101358.78
2023-08-15T05:46:02.863Z,101360.75
2023-08-15T05:51:25.006Z,101363.53
2023-08-15T05:56:46.877Z,101380.00
2023-08-15T06:02:09.159Z,101377.22
2023-08-15T06:07:31.260Z,101388.38
2023-08-15T06:12:56.211Z,101384.47
2023-08-15T06:18:18.116Z,101388.38
2023-08-15T06:23:40.106Z,101382.78
2023-08-15T06:29:02.132Z,101388.97
2023-08-15T06:34:24.009Z,101391.75
2023-08-15T06:39:45.949Z,101389.81
2023-08-15T06:45:12.890Z,101393.44
2023-08-15T06:50:34.969Z,101389.53
2023-08-15T06:55:56.880Z,101389.81
2023-08-15T07:01:18.784Z,101399.00
2023-08-15T07:06:40.680Z,101400.69
2023-08-15T07:12:04.361Z,101402.38
2023-08-15T07:17:26.234Z,101406.88
2023-08-15T07:22:48.339Z,101431.13
2023-08-15T07:28:10.718Z,101427.22
2023-08-15T07:33:32.746Z,101426.38
2023-08-15T07:38:54.819Z,101423.59
2023-08-15T07:44:16.871Z,101431.97
2023-08-15T07:49:39.323Z,101443.97
2023-08-15T07:55:01.383Z,101450.41
2023-08-15T08:00:24.263Z,101459.59
2023-08-15T08:05:47.508Z,101461.56
2023-08-15T08:11:10.088Z,101467.13
2023-08-15T08:16:32.143Z,101464.34
2023-08-15T08:21:54.498Z,101468.81
2023-08-15T08:27:16.736Z,101471.09
2023-08-15T08:32:38.709Z,101472.25
2023-08-15T08:38:00.666Z,101470.09
2023-08-15T08:43:22.670Z,101472.94
2023-08-15T08:48:45.333Z,101471.91
2023-08-15T08:54:07.499Z,101470.25
2023-08-15T08:59:29.957Z,101468.34
2023-08-15T09:04:54.052Z,101474.53
2023-08-15T09:10:16.308Z,101461.97
2023-08-15T09:15:41.558Z,101471.50
2023-08-15T09:21:05.831Z,101478.19
2023-08-15T09:26:33.116Z,101482.16
2023-08-15T09:31:55.091Z,101488.31
2023-08-15T09:37:17.023Z,101481.34
2023-08-15T09:42:38.952Z,101483.88
2023-08-15T09:48:01.823Z,101486.41
2023-08-15T09:53:25.104Z,101483.34
2023-08-15T09:58:47.328Z,101488.66
2023-08-15T10:04:14.133Z,101494.00
2023-08-15T10:09:36.452Z,101501.25
2023-08-15T10:15:02.319Z,101498.47
2023-08-15T10:20:24.525Z,101512.44
2023-08-15T10:25:50.484Z,101504.59
2023-08-15T10:31:12.759Z,101506.28
2023-08-15T10:36:34.805Z,101508.84
2023-08-15T10:41:59.094Z,101510.53
2023-08-15T10:47:24.343Z,101508.56
2023-08-15T10:52:57.235Z,101514.44
2023-08-15T10:58:22.256Z,101526.19
2023-08-15T11:03:45.243Z,101534.81
2023-08-15T11:09:07.378Z,101536.75
2023-08-15T11:14:29.308Z,101533.97
2023-08-15T11:19:51.678Z,101532.88
2023-08-15T11:25:13.842Z,101536.50
2023-08-15T11:30:35.884Z,101529.53
2023-08-15T11:36:05.313Z,101533.78
2023-08-15T11:41:27.536Z,101538.28
2023-08-15T11:46:54.773Z,101543.31
2023-08-15T11:52:18.604Z,101541.97
2023-08-15T11:57:41.947Z,101540.66
2023-08-15T12:03:04.220Z,101536.50
2023-08-15T12:08:30.711Z,101536.28
2023-08-15T12:13:52.669Z,101524.59
2023-08-15T12:19:17.914Z,101519.56
2023-08-15T12:24:42.146Z,101512.84
2023-08-15T12:30:12.434Z,101515.38
2023-08-15T12:35:37.510Z,101515.09
2023-08-15T12:40:59.455Z,101512.31
2023-08-15T12:46:21.504Z,101518.75
2023-08-15T12:51:43.457Z,101522.38
2023-08-15T12:57:05.530Z,101521.28
2023-08-15T13:02:30.544Z,101520.16
2023-08-15T13:07:52.701Z,101519.88
2023-08-15T13:13:14.806Z,101514.03
2023-08-15T13:18:37.197Z,101523.00
2023-08-15T13:23:59.062Z,101521.88
2023-08-15T13:29:21.179Z,101520.22
2023-08-15T13:34:43.022Z,101529.13
2023-08-15T13:40:05.330Z,101525.25
2023-08-15T13:45:27.629Z,101524.41
2023-08-15T13:50:49.478Z,101535.88
2023-08-15T13:56:12.816Z,101533.09
2023-08-15T14:01:35.154Z,101529.19
2023-08-15T14:07:00.133Z,101530.59
2023-08-15T14:12:22.701Z,101536.50
2023-08-15T14:17:44.916Z,101545.47
2023-08-15T14:23:07.070Z,101541.03
2023-08-15T14:28:31.987Z,101548.03
2023-08-15T14:33:53.950Z,101547.78
2023-08-15T14:39:15.754Z,101544.97
2023-08-15T14:44:37.771Z,101543.88
2023-08-15T14:50:01.110Z,101545.00
2023-08-15T14:55:23.183Z,101552.28
2023-08-15T15:00:48.097Z,101553.38
2023-08-15T15:06:09.924Z,101559.56
2023-08-15T15:11:31.788Z,101552.84
2023-08-15T15:16:56.192Z,101557.59
2023-08-15T15:22:19.488Z,101553.97
2023-08-15T15:27:41.355Z,101565.44
2023-08-15T15:33:03.612Z,101561.19
2023-08-15T15:38:25.576Z,101571.28
2023-08-15T15:43:49.016Z,101569.59
2023-08-15T15:49:11.053Z,101571.28
2023-08-15T15:54:32.921Z,101574.66
2023-08-15T15:59:54.825Z,101579.72
2023-08-15T16:05:16.981Z,101585.31
2023-08-15T16:10:39.045Z,101579.72
2023-08-15T16:16:00.939Z,101586.13
2023-08-15T16:21:23.313Z,101584.19
2023-08-15T16:26:45.161Z,101589.78
2023-08-15T16:32:07.164Z,101585.31
2023-08-15T16:37:29.045Z,101598.19
2023-08-15T16:43:16.193Z,101594.00
2023-08-15T16:48:38.808Z,101589.50
2023-08-15T16:54:00.716Z,101592.59
2023-08-15T16:59:22.760Z,101598.44
2023-08-15T17:04:45.614Z,101604.31
2023-08-15T17:10:08.136Z,101610.44
2023-08-15T17:15:30.207Z,101616.03
2023-08-15T17:20:53.646Z,101615.44
2023-08-15T17:26:15.708Z,101615.72
2023-08-15T17:31:37.596Z,101629.41
2023-08-15T17:37:02.760Z,101630.50
2023-08-15T17:42:24.746Z,101633.25
2023-08-15T17:47:47.075Z,101629.91
2023-08-15T17:53:09.001Z,101639.91
2023-08-15T17:58:50.631Z,101635.69
2023-08-15T18:04:12.649Z,101643.50
2023-08-15T18:09:35.468Z,101634.81
2023-08-15T18:14:57.458Z,101644.31
2023-08-15T18:20:19.387Z,101649.31
2023-08-15T18:25:41.338Z,101658.22
2023-08-15T18:31:03.294Z,101657.66
2023-08-15T18:36:25.253Z,101673.84
2023-08-15T18:41:47.940Z,101678.88
2023-08-15T18:47:09.865Z,101680.81
2023-08-15T18:52:31.785Z,101692.25
2023-08-15T18:57:53.960Z,101700.88
2023-08-15T19:03:15.946Z,101713.44
2023-08-15T19:08:37.981Z,101721.25
2023-08-15T19:13:59.865Z,101732.69
2023-08-15T19:19:21.718Z,101741.91
2023-08-15T19:24:45.469Z,101757.00
2023-08-15T19:30:08.708Z,101757.28
2023-08-15T19:35:31.297Z,101763.13
2023-08-15T19:40:53.184Z,101777.34
2023-08-15T19:46:15.098Z,101770.06
2023-08-15T19:51:37.028Z,101782.34
2023-08-15T19:56:58.883Z,101783.72
2023-08-15T20:02:23.860Z,101792.09
2023-08-15T20:07:46.023Z,101804.38
2023-08-15T20:13:08.061Z,101805.25
2023-08-15T20:18:30.097Z,101799.06
2023-08-15T20:23:52.040Z,101813.28
2023-08-15T20:29:14.016Z,101812.75
2023-08-15T20:34:36.050Z,101825.94
2023-08-15T20:39:57.995Z,101823.50
2023-08-15T20:45:19.944Z,101824.06
2023-08-15T20:50:41.783Z,101825.75
2023-08-15T20:56:03.715Z,101821.84
2023-08-15T21:01:26.216Z,101823.81
2023-08-15T21:06:48.343Z,101834.13
2023-08-15T21:12:10.287Z,101823.50
2023-08-15T21:17:32.297Z,101836.88
2023-08-15T21:22:54.283Z,101833.50
2023-08-15T21:28:17.409Z,101834.59
2023-08-15T21:33:39.295Z,101828.44
2023-08-15T21:39:01.147Z,101829.53
2023-08-15T21:44:23.704Z,101831.72
2023-08-15T21:49:45.893Z,101836.50
2023-08-15T21:55:08.108Z,101835.06
2023-08-15T22:00:29.994Z,101840.91
2023-08-15T22:05:51.886Z,101852.34
2023-08-15T22:11:14.808Z,101847.03
2023-08-15T22:16:36.831Z,101854.53
2023-08-15T22:21:58.748Z,101859.53
2023-08-15T22:27:21.099Z,101852.25
2023-08-15T22:32:43.362Z,101860.03
2023-08-15T22:38:05.632Z,101848.03
2023-08-15T22:43:27.570Z,101851.09
2023-08-15T22:48:49.831Z,101842.47
2023-08-15T22:54:11.895Z,101846.34
2023-08-15T22:59:33.976Z,101851.94
2023-08-15T23:04:55.879Z,101846.63
2023-08-15T23:10:17.913Z,101844.66
2023-08-15T23:15:40.055Z,101838.47
2023-08-15T23:21:02.035Z,101840.44
2023-08-15T23:26:24.126Z,101833.13
2023-08-15T23:31:46.213Z,101833.41
2023-08-15T23:37:08.100Z,101840.09
2023-08-15T23:42:30.128Z,101835.34
2023-08-15T23:47:51.996Z,101832.81
2023-08-15T23:53:14.189Z,101831.94
2023-08-15T23:58:36.196Z,101820.78
